sensor_id;sensor_type;location;lat;lon;timestamp;temperature;humidity
4964;DHT22;2497;47.410;9.740;2023-11-19T00:02:06;6.00;99.90
4964;DHT22;2497;47.410;9.740;2023-11-19T00:04:36;5.90;99.90
4964;DHT22;2497;47.410;9.740;2023-11-19T00:07:05;5.90;99.90
4964;DHT22;2497;47.410;9.740;2023-11-19T00:09:33;6.10;99.90
4964;DHT22;2497;47.410;9.740;2023-11-19T00:12:03;6.10;99.90
4964;DHT22;2497;47.410;9.740;2023-11-19T00:14:32;6.10;99.90
4964;DHT22;2497;47.410;9.740;2023-11-19T00:17:03;6.00;99.90
4964;DHT22;2497;47.410;9.740;2023-11-19T00:19:30;6.00;99.90
4964;DHT22;2497;47.410;9.740;2023-11-19T00:21:58;6.10;99.90
4964;DHT22;2497;47.410;9.740;2023-11-19T00:24:31;6.10;99.90
4964;DHT22;2497;47.410;9.740;2023-11-19T00:26:59;6.10;99.90
4964;DHT22;2497;47.410;9.740;2023-11-19T00:29:26;6.10;99.90
4964;DHT22;2497;47.410;9.740;2023-11-19T00:31:58;6.20;99.90
4964;DHT22;2497;47.410;9.740;2023-11-19T00:34:25;6.20;99.90
4964;DHT22;2497;47.410;9.740;2023-11-19T00:36:52;6.20;99.90
4964;DHT22;2497;47.410;9.740;2023-11-19T00:39:20;6.20;99.90
4964;DHT22;2497;47.410;9.740;2023-11-19T00:41:48;6.20;99.90
4964;DHT22;2497;47.410;9.740;2023-11-19T00:44:15;6.10;99.90
4964;DHT22;2497;47.410;9.740;2023-11-19T00:46:42;6.20;99.90
4964;DHT22;2497;47.410;9.740;2023-11-19T00:49:11;6.20;99.90
4964;DHT22;2497;47.410;9.740;2023-11-19T00:51:38;6.10;99.90
4964;DHT22;2497;47.410;9.740;2023-11-19T00:54:05;6.20;99.90
4964;DHT22;2497;47.410;9.740;2023-11-19T00:56:32;6.20;99.90
4964;DHT22;2497;47.410;9.740;2023-11-19T00:58:59;6.30;99.90
4964;DHT22;2497;47.410;9.740;2023-11-19T01:01:26;6.20;99.90
4964;DHT22;2497;47.410;9.740;2023-11-19T01:03:54;6.30;99.90
4964;DHT22;2497;47.410;9.740;2023-11-19T01:06:30;6.20;99.90
4964;DHT22;2497;47.410;9.740;2023-11-19T01:08:58;6.20;99.90
4964;DHT22;2497;47.410;9.740;2023-11-19T01:11:26;6.20;99.90
4964;DHT22;2497;47.410;9.740;2023-11-19T01:13:54;6.20;99.90
4964;DHT22;2497;47.410;9.740;2023-11-19T01:16:21;6.30;99.90
4964;DHT22;2497;47.410;9.740;2023-11-19T01:18:48;6.20;99.90
4964;DHT22;2497;47.410;9.740;2023-11-19T01:21:16;6.30;99.90
4964;DHT22;2497;47.410;9.740;2023-11-19T01:23:45;6.30;99.90
4964;DHT22;2497;47.410;9.740;2023-11-19T01:26:12;6.30;99.90
4964;DHT22;2497;47.410;9.740;2023-11-19T01:28:40;6.30;99.90
4964;DHT22;2497;47.410;9.740;2023-11-19T01:31:08;6.30;99.90
4964;DHT22;2497;47.410;9.740;2023-11-19T01:33:36;6.40;99.90
4964;DHT22;2497;47.410;9.740;2023-11-19T01:36:04;6.40;99.90
4964;DHT22;2497;47.410;9.740;2023-11-19T01:38:31;6.50;99.90
4964;DHT22;2497;47.410;9.740;2023-11-19T01:40:59;6.40;99.90
4964;DHT22;2497;47.410;9.740;2023-11-19T01:43:34;6.40;99.90
4964;DHT22;2497;47.410;9.740;2023-11-19T01:46:01;6.40;99.90
4964;DHT22;2497;47.410;9.740;2023-11-19T01:48:29;6.40;99.90
4964;DHT22;2497;47.410;9.740;2023-11-19T01:50:57;6.40;99.90
4964;DHT22;2497;47.410;9.740;2023-11-19T01:53:24;6.40;99.90
4964;DHT22;2497;47.410;9.740;2023-11-19T01:55:51;6.50;99.90
4964;DHT22;2497;47.410;9.740;2023-11-19T01:58:20;6.50;99.90
4964;DHT22;2497;47.410;9.740;2023-11-19T02:00:48;6.50;99.90
4964;DHT22;2497;47.410;9.740;2023-11-19T02:03:16;6.50;99.90
4964;DHT22;2497;47.410;9.740;2023-11-19T02:05:45;6.60;99.90
4964;DHT22;2497;47.410;9.740;2023-11-19T02:08:14;6.60;99.90
4964;DHT22;2497;47.410;9.740;2023-11-19T02:10:41;6.70;99.90
4964;DHT22;2497;47.410;9.740;2023-11-19T02:13:08;6.80;99.90
4964;DHT22;2497;47.410;9.740;2023-11-19T02:15:37;6.70;99.90
4964;DHT22;2497;47.410;9.740;2023-11-19T02:18:20;6.80;99.90
4964;DHT22;2497;47.410;9.740;2023-11-19T02:20:48;6.80;99.90
4964;DHT22;2497;47.410;9.740;2023-11-19T02:23:16;6.80;99.90
4964;DHT22;2497;47.410;9.740;2023-11-19T02:25:47;6.80;99.90
4964;DHT22;2497;47.410;9.740;2023-11-19T02:28:18;6.80;99.90
4964;DHT22;2497;47.410;9.740;2023-11-19T02:30:45;6.80;99.90
4964;DHT22;2497;47.410;9.740;2023-11-19T02:33:12;6.80;99.90
4964;DHT22;2497;47.410;9.740;2023-11-19T02:35:41;6.80;99.90
4964;DHT22;2497;47.410;9.740;2023-11-19T02:38:08;6.80;99.90
4964;DHT22;2497;47.410;9.740;2023-11-19T02:40:35;6.80;99.90
4964;DHT22;2497;47.410;9.740;2023-11-19T02:43:02;6.80;99.90
4964;DHT22;2497;47.410;9.740;2023-11-19T02:45:32;6.80;99.90
4964;DHT22;2497;47.410;9.740;2023-11-19T02:47:59;6.90;99.90
4964;DHT22;2497;47.410;9.740;2023-11-19T02:50:28;6.80;99.90
4964;DHT22;2497;47.410;9.740;2023-11-19T02:52:56;6.80;99.90
4964;DHT22;2497;47.410;9.740;2023-11-19T02:55:23;6.80;99.90
4964;DHT22;2497;47.410;9.740;2023-11-19T02:57:51;6.80;99.90
4964;DHT22;2497;47.410;9.740;2023-11-19T03:00:20;6.70;99.90
4964;DHT22;2497;47.410;9.740;2023-11-19T03:02:55;6.70;99.90
4964;DHT22;2497;47.410;9.740;2023-11-19T03:05:26;6.70;99.90
4964;DHT22;2497;47.410;9.740;2023-11-19T03:07:56;6.70;99.90
4964;DHT22;2497;47.410;9.740;2023-11-19T03:10:23;6.70;99.90
4964;DHT22;2497;47.410;9.740;2023-11-19T03:12:50;6.70;99.90
4964;DHT22;2497;47.410;9.740;2023-11-19T03:15:18;6.80;99.90
4964;DHT22;2497;47.410;9.740;2023-11-19T03:17:46;6.80;99.90
4964;DHT22;2497;47.410;9.740;2023-11-19T03:20:16;6.90;99.90
4964;DHT22;2497;47.410;9.740;2023-11-19T03:22:43;6.80;99.90
4964;DHT22;2497;47.410;9.740;2023-11-19T03:25:10;6.80;99.90
4964;DHT22;2497;47.410;9.740;2023-11-19T03:27:39;6.90;99.90
4964;DHT22;2497;47.410;9.740;2023-11-19T03:30:08;6.90;99.90
4964;DHT22;2497;47.410;9.740;2023-11-19T03:32:36;6.80;99.90
4964;DHT22;2497;47.410;9.740;2023-11-19T03:35:05;6.80;99.90
4964;DHT22;2497;47.410;9.740;2023-11-19T03:37:34;6.80;99.90
4964;DHT22;2497;47.410;9.740;2023-11-19T03:40:01;6.80;99.90
4964;DHT22;2497;47.410;9.740;2023-11-19T03:42:29;6.70;99.90
4964;DHT22;2497;47.410;9.740;2023-11-19T03:44:57;6.70;99.90
4964;DHT22;2497;47.410;9.740;2023-11-19T03:47:24;6.70;99.90
4964;DHT22;2497;47.410;9.740;2023-11-19T03:49:51;6.70;99.90
4964;DHT22;2497;47.410;9.740;2023-11-19T03:52:19;6.70;99.90
4964;DHT22;2497;47.410;9.740;2023-11-19T03:54:47;6.70;99.90
4964;DHT22;2497;47.410;9.740;2023-11-19T03:57:14;6.70;99.90
4964;DHT22;2497;47.410;9.740;2023-11-19T03:59:42;6.80;99.90
4964;DHT22;2497;47.410;9.740;2023-11-19T04:02:09;6.80;99.90
4964;DHT22;2497;47.410;9.740;2023-11-19T04:04:38;6.90;99.90
4964;DHT22;2497;47.410;9.740;2023-11-19T04:07:06;6.80;99.90
4964;DHT22;2497;47.410;9.740;2023-11-19T04:09:33;6.90;99.90
4964;DHT22;2497;47.410;9.740;2023-11-19T04:12:01;7.10;99.90
4964;DHT22;2497;47.410;9.740;2023-11-19T04:14:28;7.10;99.90
4964;DHT22;2497;47.410;9.740;2023-11-19T04:16:58;7.10;99.90
4964;DHT22;2497;47.410;9.740;2023-11-19T04:19:25;7.10;99.90
4964;DHT22;2497;47.410;9.740;2023-11-19T04:21:52;7.00;99.90
4964;DHT22;2497;47.410;9.740;2023-11-19T04:24:19;7.00;99.90
4964;DHT22;2497;47.410;9.740;2023-11-19T04:26:47;6.90;99.90
4964;DHT22;2497;47.410;9.740;2023-11-19T04:29:16;6.90;99.90
4964;DHT22;2497;47.410;9.740;2023-11-19T04:31:44;6.90;99.90
4964;DHT22;2497;47.410;9.740;2023-11-19T04:34:11;6.90;99.90
4964;DHT22;2497;47.410;9.740;2023-11-19T04:36:38;6.80;99.90
4964;DHT22;2497;47.410;9.740;2023-11-19T04:39:06;6.70;99.90
4964;DHT22;2497;47.410;9.740;2023-11-19T04:41:47;6.80;99.90
4964;DHT22;2497;47.410;9.740;2023-11-19T04:44:18;6.70;99.90
4964;DHT22;2497;47.410;9.740;2023-11-19T04:46:48;6.70;99.90
4964;DHT22;2497;47.410;9.740;2023-11-19T04:49:18;6.70;99.90
4964;DHT22;2497;47.410;9.740;2023-11-19T04:51:45;6.70;99.90
4964;DHT22;2497;47.410;9.740;2023-11-19T04:54:13;6.70;99.90
4964;DHT22;2497;47.410;9.740;2023-11-19T04:56:41;6.80;99.90
4964;DHT22;2497;47.410;9.740;2023-11-19T04:59:13;6.80;99.90
4964;DHT22;2497;47.410;9.740;2023-11-19T05:01:46;6.90;99.90
4964;DHT22;2497;47.410;9.740;2023-11-19T05:04:13;6.80;99.90
4964;DHT22;2497;47.410;9.740;2023-11-19T05:06:41;6.70;99.90
4964;DHT22;2497;47.410;9.740;2023-11-19T05:09:08;6.70;99.90
4964;DHT22;2497;47.410;9.740;2023-11-19T05:11:38;6.70;99.90
4964;DHT22;2497;47.410;9.740;2023-11-19T05:14:06;6.70;99.90
4964;DHT22;2497;47.410;9.740;2023-11-19T05:16:34;6.70;99.90
4964;DHT22;2497;47.410;9.740;2023-11-19T05:19:03;6.60;99.90
4964;DHT22;2497;47.410;9.740;2023-11-19T05:21:30;6.70;99.90
4964;DHT22;2497;47.410;9.740;2023-11-19T05:23:57;6.70;99.90
4964;DHT22;2497;47.410;9.740;2023-11-19T05:26:24;6.80;99.90
4964;DHT22;2497;47.410;9.740;2023-11-19T05:28:52;6.90;99.90
4964;DHT22;2497;47.410;9.740;2023-11-19T05:31:20;6.80;99.90
4964;DHT22;2497;47.410;9.740;2023-11-19T05:33:47;6.80;99.90
4964;DHT22;2497;47.410;9.740;2023-11-19T05:36:15;6.80;99.90
4964;DHT22;2497;47.410;9.740;2023-11-19T05:38:43;6.80;99.90
4964;DHT22;2497;47.410;9.740;2023-11-19T05:41:10;6.80;99.90
4964;DHT22;2497;47.410;9.740;2023-11-19T05:43:37;6.70;99.90
4964;DHT22;2497;47.410;9.740;2023-11-19T05:46:06;6.70;99.90
4964;DHT22;2497;47.410;9.740;2023-11-19T05:48:33;6.70;99.90
4964;DHT22;2497;47.410;9.740;2023-11-19T05:51:00;6.70;99.90
4964;DHT22;2497;47.410;9.740;2023-11-19T05:53:30;6.80;99.90
4964;DHT22;2497;47.410;9.740;2023-11-19T05:56:00;6.70;99.90
4964;DHT22;2497;47.410;9.740;2023-11-19T05:58:30;6.70;99.90
4964;DHT22;2497;47.410;9.740;2023-11-19T06:00:58;6.80;99.90
4964;DHT22;2497;47.410;9.740;2023-11-19T06:03:26;6.80;99.90
4964;DHT22;2497;47.410;9.740;2023-11-19T06:05:53;6.80;99.90
4964;DHT22;2497;47.410;9.740;2023-11-19T06:08:22;6.70;99.90
4964;DHT22;2497;47.410;9.740;2023-11-19T06:10:51;6.90;99.90
4964;DHT22;2497;47.410;9.740;2023-11-19T06:13:18;6.90;99.90
4964;DHT22;2497;47.410;9.740;2023-11-19T06:15:45;6.80;99.90
4964;DHT22;2497;47.410;9.740;2023-11-19T06:18:12;6.90;99.90
4964;DHT22;2497;47.410;9.740;2023-11-19T06:20:40;6.90;99.90
4964;DHT22;2497;47.410;9.740;2023-11-19T06:23:07;6.80;99.90
4964;DHT22;2497;47.410;9.740;2023-11-19T06:25:34;6.80;99.90
4964;DHT22;2497;47.410;9.740;2023-11-19T06:28:03;6.80;99.90
4964;DHT22;2497;47.410;9.740;2023-11-19T06:30:30;6.80;99.90
4964;DHT22;2497;47.410;9.740;2023-11-19T06:32:58;6.80;99.90
4964;DHT22;2497;47.410;9.740;2023-11-19T06:35:25;6.80;99.90
4964;DHT22;2497;47.410;9.740;2023-11-19T06:37:52;6.80;99.90
4964;DHT22;2497;47.410;9.740;2023-11-19T06:40:19;6.90;99.90
4964;DHT22;2497;47.410;9.740;2023-11-19T06:42:46;6.80;99.90
4964;DHT22;2497;47.410;9.740;2023-11-19T06:45:15;6.90;99.90
4964;DHT22;2497;47.410;9.740;2023-11-19T06:47:42;6.90;99.90
4964;DHT22;2497;47.410;9.740;2023-11-19T06:50:09;6.80;99.90
4964;DHT22;2497;47.410;9.740;2023-11-19T06:52:38;6.80;99.90
4964;DHT22;2497;47.410;9.740;2023-11-19T06:55:06;6.80;99.90
4964;DHT22;2497;47.410;9.740;2023-11-19T06:57:33;6.80;99.90
4964;DHT22;2497;47.410;9.740;2023-11-19T07:00:00;6.80;99.90
4964;DHT22;2497;47.410;9.740;2023-11-19T07:02:29;6.80;99.90
4964;DHT22;2497;47.410;9.740;2023-11-19T07:04:56;6.80;99.90
4964;DHT22;2497;47.410;9.740;2023-11-19T07:07:25;6.80;99.90
4964;DHT22;2497;47.410;9.740;2023-11-19T07:09:53;6.80;99.90
4964;DHT22;2497;47.410;9.740;2023-11-19T07:12:20;6.80;99.90
4964;DHT22;2497;47.410;9.740;2023-11-19T07:14:47;6.80;99.90
4964;DHT22;2497;47.410;9.740;2023-11-19T07:17:14;6.80;99.90
4964;DHT22;2497;47.410;9.740;2023-11-19T07:19:43;6.90;99.90
4964;DHT22;2497;47.410;9.740;2023-11-19T07:22:10;6.90;99.90
4964;DHT22;2497;47.410;9.740;2023-11-19T07:24:39;6.90;99.90
4964;DHT22;2497;47.410;9.740;2023-11-19T07:27:07;6.90;99.90
4964;DHT22;2497;47.410;9.740;2023-11-19T07:29:35;6.90;99.90
4964;DHT22;2497;47.410;9.740;2023-11-19T07:32:03;6.90;99.90
4964;DHT22;2497;47.410;9.740;2023-11-19T07:34:30;7.00;99.90
4964;DHT22;2497;47.410;9.740;2023-11-19T07:36:59;6.90;99.90
4964;DHT22;2497;47.410;9.740;2023-11-19T07:39:28;7.00;99.90
4964;DHT22;2497;47.410;9.740;2023-11-19T07:41:55;7.10;99.90
4964;DHT22;2497;47.410;9.740;2023-11-19T07:44:22;7.10;99.90
4964;DHT22;2497;47.410;9.740;2023-11-19T07:46:50;7.10;99.90
4964;DHT22;2497;47.410;9.740;2023-11-19T07:49:17;7.10;99.90
4964;DHT22;2497;47.410;9.740;2023-11-19T07:51:44;7.20;99.90
4964;DHT22;2497;47.410;9.740;2023-11-19T07:54:12;7.20;99.90
4964;DHT22;2497;47.410;9.740;2023-11-19T07:56:40;7.20;99.90
4964;DHT22;2497;47.410;9.740;2023-11-19T07:59:07;7.20;99.90
4964;DHT22;2497;47.410;9.740;2023-11-19T08:01:37;7.30;99.90
4964;DHT22;2497;47.410;9.740;2023-11-19T08:04:04;7.20;99.90
4964;DHT22;2497;47.410;9.740;2023-11-19T08:06:31;7.20;99.90
4964;DHT22;2497;47.410;9.740;2023-11-19T08:08:58;7.30;99.90
4964;DHT22;2497;47.410;9.740;2023-11-19T08:11:27;7.30;99.90
4964;DHT22;2497;47.410;9.740;2023-11-19T08:13:56;7.30;99.90
4964;DHT22;2497;47.410;9.740;2023-11-19T08:16:23;7.30;99.90
4964;DHT22;2497;47.410;9.740;2023-11-19T08:18:50;7.30;99.90
4964;DHT22;2497;47.410;9.740;2023-11-19T08:21:17;7.30;99.90
4964;DHT22;2497;47.410;9.740;2023-11-19T08:23:44;7.40;99.90
4964;DHT22;2497;47.410;9.740;2023-11-19T08:26:11;7.40;99.90
4964;DHT22;2497;47.410;9.740;2023-11-19T08:28:40;7.40;99.90
4964;DHT22;2497;47.410;9.740;2023-11-19T08:31:07;7.60;99.90
4964;DHT22;2497;47.410;9.740;2023-11-19T08:33:36;7.70;99.90
4964;DHT22;2497;47.410;9.740;2023-11-19T08:36:04;7.70;99.90
4964;DHT22;2497;47.410;9.740;2023-11-19T08:38:34;7.60;99.90
4964;DHT22;2497;47.410;9.740;2023-11-19T08:41:02;7.70;99.90
4964;DHT22;2497;47.410;9.740;2023-11-19T08:43:29;7.60;99.90
4964;DHT22;2497;47.410;9.740;2023-11-19T08:45:58;7.50;99.90
4964;DHT22;2497;47.410;9.740;2023-11-19T08:48:25;7.50;99.90
4964;DHT22;2497;47.410;9.740;2023-11-19T08:50:52;7.50;99.90
4964;DHT22;2497;47.410;9.740;2023-11-19T08:53:20;7.60;99.90
4964;DHT22;2497;47.410;9.740;2023-11-19T08:55:47;7.50;99.90
4964;DHT22;2497;47.410;9.740;2023-11-19T08:58:15;7.60;99.90
4964;DHT22;2497;47.410;9.740;2023-11-19T09:00:42;7.60;99.90
4964;DHT22;2497;47.410;9.740;2023-11-19T09:03:13;7.70;99.90
4964;DHT22;2497;47.410;9.740;2023-11-19T09:05:40;7.80;99.90
4964;DHT22;2497;47.410;9.740;2023-11-19T09:08:07;7.70;99.90
4964;DHT22;2497;47.410;9.740;2023-11-19T09:10:35;7.90;99.90
4964;DHT22;2497;47.410;9.740;2023-11-19T09:13:02;7.90;99.90
4964;DHT22;2497;47.410;9.740;2023-11-19T09:15:29;7.90;99.90
4964;DHT22;2497;47.410;9.740;2023-11-19T09:17:57;7.90;99.90
4964;DHT22;2497;47.410;9.740;2023-11-19T09:20:26;7.90;99.90
4964;DHT22;2497;47.410;9.740;2023-11-19T09:22:53;7.90;99.90
4964;DHT22;2497;47.410;9.740;2023-11-19T09:25:20;7.90;99.90
4964;DHT22;2497;47.410;9.740;2023-11-19T09:27:47;8.00;99.90
4964;DHT22;2497;47.410;9.740;2023-11-19T09:30:14;8.00;99.90
4964;DHT22;2497;47.410;9.740;2023-11-19T09:32:42;8.00;99.90
4964;DHT22;2497;47.410;9.740;2023-11-19T09:35:09;8.10;99.90
4964;DHT22;2497;47.410;9.740;2023-11-19T09:37:40;8.20;99.90
4964;DHT22;2497;47.410;9.740;2023-11-19T09:40:08;8.30;99.90
4964;DHT22;2497;47.410;9.740;2023-11-19T09:42:45;8.30;99.90
4964;DHT22;2497;47.410;9.740;2023-11-19T09:45:14;8.40;99.90
4964;DHT22;2497;47.410;9.740;2023-11-19T09:47:43;8.50;99.90
4964;DHT22;2497;47.410;9.740;2023-11-19T09:50:15;8.60;99.90
4964;DHT22;2497;47.410;9.740;2023-11-19T09:52:44;8.70;99.90
4964;DHT22;2497;47.410;9.740;2023-11-19T09:55:11;8.70;99.90
4964;DHT22;2497;47.410;9.740;2023-11-19T09:57:39;8.70;99.90
4964;DHT22;2497;47.410;9.740;2023-11-19T10:00:08;8.80;99.90
4964;DHT22;2497;47.410;9.740;2023-11-19T10:02:36;8.70;99.90
4964;DHT22;2497;47.410;9.740;2023-11-19T10:05:06;8.90;99.90
4964;DHT22;2497;47.410;9.740;2023-11-19T10:07:34;8.90;99.90
4964;DHT22;2497;47.410;9.740;2023-11-19T10:10:06;8.90;99.90
4964;DHT22;2497;47.410;9.740;2023-11-19T10:12:33;9.00;99.90
4964;DHT22;2497;47.410;9.740;2023-11-19T10:15:00;9.10;99.90
4964;DHT22;2497;47.410;9.740;2023-11-19T10:17:28;9.20;99.90
4964;DHT22;2497;47.410;9.740;2023-11-19T10:19:56;9.10;99.90
4964;DHT22;2497;47.410;9.740;2023-11-19T10:22:23;9.10;99.90
4964;DHT22;2497;47.410;9.740;2023-11-19T10:24:52;9.10;99.90
4964;DHT22;2497;47.410;9.740;2023-11-19T10:27:24;9.20;99.90
4964;DHT22;2497;47.410;9.740;2023-11-19T10:29:53;9.30;99.90
4964;DHT22;2497;47.410;9.740;2023-11-19T10:32:21;9.30;99.90
4964;DHT22;2497;47.410;9.740;2023-11-19T10:34:49;9.40;99.90
4964;DHT22;2497;47.410;9.740;2023-11-19T10:37:28;9.30;99.90
4964;DHT22;2497;47.410;9.740;2023-11-19T10:39:57;9.30;99.90
4964;DHT22;2497;47.410;9.740;2023-11-19T10:42:26;9.40;99.90
4964;DHT22;2497;47.410;9.740;2023-11-19T10:44:53;9.30;99.90
4964;DHT22;2497;47.410;9.740;2023-11-19T10:47:20;9.30;99.90
4964;DHT22;2497;47.410;9.740;2023-11-19T10:49:49;9.40;99.90
4964;DHT22;2497;47.410;9.740;2023-11-19T10:52:18;9.40;99.90
4964;DHT22;2497;47.410;9.740;2023-11-19T10:54:50;9.40;99.90
4964;DHT22;2497;47.410;9.740;2023-11-19T10:57:20;9.50;99.90
4964;DHT22;2497;47.410;9.740;2023-11-19T10:59:52;9.40;99.90
4964;DHT22;2497;47.410;9.740;2023-11-19T11:02:24;9.40;99.90
4964;DHT22;2497;47.410;9.740;2023-11-19T11:04:53;9.30;99.90
4964;DHT22;2497;47.410;9.740;2023-11-19T11:07:22;9.40;99.90
4964;DHT22;2497;47.410;9.740;2023-11-19T11:09:52;9.30;99.90
4964;DHT22;2497;47.410;9.740;2023-11-19T11:12:22;9.40;99.90
4964;DHT22;2497;47.410;9.740;2023-11-19T11:14:53;9.40;99.90
4964;DHT22;2497;47.410;9.740;2023-11-19T11:17:24;9.50;99.90
4964;DHT22;2497;47.410;9.740;2023-11-19T11:19:53;9.50;99.90
4964;DHT22;2497;47.410;9.740;2023-11-19T11:22:22;9.50;99.90
4964;DHT22;2497;47.410;9.740;2023-11-19T11:25:11;9.70;99.90
4964;DHT22;2497;47.410;9.740;2023-11-19T11:27:50;9.60;99.90
4964;DHT22;2497;47.410;9.740;2023-11-19T11:30:31;9.60;99.90
4964;DHT22;2497;47.410;9.740;2023-11-19T11:33:10;9.60;99.90
4964;DHT22;2497;47.410;9.740;2023-11-19T11:35:49;9.60;99.90
4964;DHT22;2497;47.410;9.740;2023-11-19T11:38:22;9.60;99.90
4964;DHT22;2497;47.410;9.740;2023-11-19T11:41:17;9.70;99.90
4964;DHT22;2497;47.410;9.740;2023-11-19T11:43:47;9.70;99.90
4964;DHT22;2497;47.410;9.740;2023-11-19T11:49:27;9.80;99.90
4964;DHT22;2497;47.410;9.740;2023-11-19T11:52:02;9.80;99.90
4964;DHT22;2497;47.410;9.740;2023-11-19T11:54:33;9.90;99.90
4964;DHT22;2497;47.410;9.740;2023-11-19T11:57:02;9.90;99.90
4964;DHT22;2497;47.410;9.740;2023-11-19T11:59:46;9.90;99.90
4964;DHT22;2497;47.410;9.740;2023-11-19T12:02:14;9.80;99.90
4964;DHT22;2497;47.410;9.740;2023-11-19T12:04:46;9.90;99.90
4964;DHT22;2497;47.410;9.740;2023-11-19T12:07:16;10.00;99.90
4964;DHT22;2497;47.410;9.740;2023-11-19T12:09:48;10.10;99.90
4964;DHT22;2497;47.410;9.740;2023-11-19T12:12:20;10.10;99.90
4964;DHT22;2497;47.410;9.740;2023-11-19T12:15:02;10.30;99.90
4964;DHT22;2497;47.410;9.740;2023-11-19T12:17:48;10.50;99.90
4964;DHT22;2497;47.410;9.740;2023-11-19T12:20:18;10.80;99.90
4964;DHT22;2497;47.410;9.740;2023-11-19T12:22:47;11.00;99.90
4964;DHT22;2497;47.410;9.740;2023-11-19T12:25:16;11.00;99.90
4964;DHT22;2497;47.410;9.740;2023-11-19T12:27:45;11.10;99.90
4964;DHT22;2497;47.410;9.740;2023-11-19T12:30:17;11.10;99.90
4964;DHT22;2497;47.410;9.740;2023-11-19T12:32:45;11.00;99.90
4964;DHT22;2497;47.410;9.740;2023-11-19T12:35:13;10.80;99.90
4964;DHT22;2497;47.410;9.740;2023-11-19T12:37:42;10.70;99.90
4964;DHT22;2497;47.410;9.740;2023-11-19T12:40:15;10.60;99.90
4964;DHT22;2497;47.410;9.740;2023-11-19T12:42:43;10.60;99.90
4964;DHT22;2497;47.410;9.740;2023-11-19T12:45:10;10.60;99.90
4964;DHT22;2497;47.410;9.740;2023-11-19T12:47:39;10.50;99.90
4964;DHT22;2497;47.410;9.740;2023-11-19T12:50:07;10.50;99.90
4964;DHT22;2497;47.410;9.740;2023-11-19T12:52:35;10.50;99.90
4964;DHT22;2497;47.410;9.740;2023-11-19T12:55:05;10.50;99.90
4964;DHT22;2497;47.410;9.740;2023-11-19T12:57:37;10.40;99.90
4964;DHT22;2497;47.410;9.740;2023-11-19T13:00:05;10.30;99.90
4964;DHT22;2497;47.410;9.740;2023-11-19T13:02:45;10.20;99.90
4964;DHT22;2497;47.410;9.740;2023-11-19T13:05:27;10.30;99.90
4964;DHT22;2497;47.410;9.740;2023-11-19T13:08:01;10.30;99.90
4964;DHT22;2497;47.410;9.740;2023-11-19T13:10:30;10.30;99.90
4964;DHT22;2497;47.410;9.740;2023-11-19T13:13:05;10.20;99.90
4964;DHT22;2497;47.410;9.740;2023-11-19T13:15:32;10.30;99.90
4964;DHT22;2497;47.410;9.740;2023-11-19T13:17:59;10.30;99.90
4964;DHT22;2497;47.410;9.740;2023-11-19T13:20:27;10.30;99.90
4964;DHT22;2497;47.410;9.740;2023-11-19T13:22:56;10.20;99.90
4964;DHT22;2497;47.410;9.740;2023-11-19T13:25:26;10.20;99.90
4964;DHT22;2497;47.410;9.740;2023-11-19T13:27:54;10.30;99.90
4964;DHT22;2497;47.410;9.740;2023-11-19T13:30:22;10.40;99.90
4964;DHT22;2497;47.410;9.740;2023-11-19T13:32:49;10.50;99.90
4964;DHT22;2497;47.410;9.740;2023-11-19T13:35:19;10.40;99.90
4964;DHT22;2497;47.410;9.740;2023-11-19T13:37:48;10.50;99.90
4964;DHT22;2497;47.410;9.740;2023-11-19T13:40:15;10.60;99.90
4964;DHT22;2497;47.410;9.740;2023-11-19T13:42:42;10.60;99.90
4964;DHT22;2497;47.410;9.740;2023-11-19T13:45:12;10.60;99.90
4964;DHT22;2497;47.410;9.740;2023-11-19T13:47:40;10.70;99.90
4964;DHT22;2497;47.410;9.740;2023-11-19T13:50:09;10.70;99.90
4964;DHT22;2497;47.410;9.740;2023-11-19T13:52:36;10.70;99.90
4964;DHT22;2497;47.410;9.740;2023-11-19T13:55:06;10.90;99.90
4964;DHT22;2497;47.410;9.740;2023-11-19T13:57:34;11.00;99.90
4964;DHT22;2497;47.410;9.740;2023-11-19T14:00:01;11.00;99.90
4964;DHT22;2497;47.410;9.740;2023-11-19T14:02:34;11.00;99.90
4964;DHT22;2497;47.410;9.740;2023-11-19T14:05:02;10.80;99.90
4964;DHT22;2497;47.410;9.740;2023-11-19T14:07:29;10.80;99.90
4964;DHT22;2497;47.410;9.740;2023-11-19T14:09:56;10.80;99.90
4964;DHT22;2497;47.410;9.740;2023-11-19T14:12:23;10.90;99.90
4964;DHT22;2497;47.410;9.740;2023-11-19T14:14:51;10.90;99.90
4964;DHT22;2497;47.410;9.740;2023-11-19T14:17:18;10.80;99.90
4964;DHT22;2497;47.410;9.740;2023-11-19T14:19:47;10.70;99.90
4964;DHT22;2497;47.410;9.740;2023-11-19T14:22:14;10.70;99.90
4964;DHT22;2497;47.410;9.740;2023-11-19T14:24:41;10.70;99.90
4964;DHT22;2497;47.410;9.740;2023-11-19T14:27:08;10.60;99.90
4964;DHT22;2497;47.410;9.740;2023-11-19T14:29:36;10.60;99.90
4964;DHT22;2497;47.410;9.740;2023-11-19T14:32:03;10.60;99.90
4964;DHT22;2497;47.410;9.740;2023-11-19T14:34:30;10.70;99.90
4964;DHT22;2497;47.410;9.740;2023-11-19T14:36:59;10.60;99.90
4964;DHT22;2497;47.410;9.740;2023-11-19T14:39:27;10.50;99.90
4964;DHT22;2497;47.410;9.740;2023-11-19T14:41:55;10.50;99.90
4964;DHT22;2497;47.410;9.740;2023-11-19T14:44:24;10.40;99.90
4964;DHT22;2497;47.410;9.740;2023-11-19T14:46:51;10.40;99.90
4964;DHT22;2497;47.410;9.740;2023-11-19T14:49:18;10.40;99.90
4964;DHT22;2497;47.410;9.740;2023-11-19T14:51:45;10.40;99.90
4964;DHT22;2497;47.410;9.740;2023-11-19T14:54:13;10.40;99.90
4964;DHT22;2497;47.410;9.740;2023-11-19T14:56:42;10.40;99.90
4964;DHT22;2497;47.410;9.740;2023-11-19T14:59:09;10.30;99.90
4964;DHT22;2497;47.410;9.740;2023-11-19T15:01:36;10.40;99.90
4964;DHT22;2497;47.410;9.740;2023-11-19T15:04:03;10.40;99.90
4964;DHT22;2497;47.410;9.740;2023-11-19T15:06:30;10.40;99.90
4964;DHT22;2497;47.410;9.740;2023-11-19T15:08:59;10.50;99.90
4964;DHT22;2497;47.410;9.740;2023-11-19T15:11:27;10.50;99.90
4964;DHT22;2497;47.410;9.740;2023-11-19T15:13:54;10.70;99.90
4964;DHT22;2497;47.410;9.740;2023-11-19T15:16:22;10.70;99.90
4964;DHT22;2497;47.410;9.740;2023-11-19T15:18:56;10.80;99.90
4964;DHT22;2497;47.410;9.740;2023-11-19T15:21:25;10.80;99.90
4964;DHT22;2497;47.410;9.740;2023-11-19T15:23:54;10.80;99.90
4964;DHT22;2497;47.410;9.740;2023-11-19T15:26:22;10.80;99.90
4964;DHT22;2497;47.410;9.740;2023-11-19T15:28:50;10.80;99.90
4964;DHT22;2497;47.410;9.740;2023-11-19T15:31:21;10.80;99.90
4964;DHT22;2497;47.410;9.740;2023-11-19T15:33:48;10.80;99.90
4964;DHT22;2497;47.410;9.740;2023-11-19T15:36:16;10.80;99.90
4964;DHT22;2497;47.410;9.740;2023-11-19T15:38:43;10.70;99.90
4964;DHT22;2497;47.410;9.740;2023-11-19T15:41:10;10.70;99.90
4964;DHT22;2497;47.410;9.740;2023-11-19T15:43:38;10.70;99.90
4964;DHT22;2497;47.410;9.740;2023-11-19T15:46:07;10.60;99.90
4964;DHT22;2497;47.410;9.740;2023-11-19T15:48:35;10.60;99.90
4964;DHT22;2497;47.410;9.740;2023-11-19T15:51:02;10.60;99.90
4964;DHT22;2497;47.410;9.740;2023-11-19T15:53:29;10.60;99.90
4964;DHT22;2497;47.410;9.740;2023-11-19T15:55:56;10.60;99.90
4964;DHT22;2497;47.410;9.740;2023-11-19T15:58:23;10.50;99.90
4964;DHT22;2497;47.410;9.740;2023-11-19T16:00:50;10.50;99.90
4964;DHT22;2497;47.410;9.740;2023-11-19T16:03:19;10.50;99.90
4964;DHT22;2497;47.410;9.740;2023-11-19T16:05:46;10.40;99.90
4964;DHT22;2497;47.410;9.740;2023-11-19T16:08:14;10.40;99.90
4964;DHT22;2497;47.410;9.740;2023-11-19T16:10:41;10.40;99.90
4964;DHT22;2497;47.410;9.740;2023-11-19T16:13:09;10.40;99.90
4964;DHT22;2497;47.410;9.740;2023-11-19T16:15:37;10.40;99.90
4964;DHT22;2497;47.410;9.740;2023-11-19T16:18:04;10.30;99.90
4964;DHT22;2497;47.410;9.740;2023-11-19T16:20:36;10.30;99.90
4964;DHT22;2497;47.410;9.740;2023-11-19T16:23:03;10.30;99.90
4964;DHT22;2497;47.410;9.740;2023-11-19T16:25:30;10.30;99.90
4964;DHT22;2497;47.410;9.740;2023-11-19T16:27:58;10.20;99.90